Time;durP1;ratioP1;P1;durP2;ratioP2;P2;SDS_P1;SDS_P2;PMS_P1;PMS_P2;Temp;Humidity;BMP_temperature;BMP_pressure;BME280_temperature;BME280_humidity;BME280_pressure;Samples;Min_cycle;Max_cycle;Signal;HPM_P1;HPM_P2
2024/02/22 00:00:53;;;;;;;2.70;1.90;;;;;;;10.07;67.23;97361.78;5002278;28;20040;-76
2024/02/22 00:03:19;;;;;;;3.15;1.90;;;;;;;10.02;68.23;97364.44;5026882;28;20073;-75
2024/02/22 00:05:44;;;;;;;2.90;1.77;;;;;;;10.11;68.92;97379.00;5034329;28;20059;-78
2024/02/22 00:08:10;;;;;;;3.70;2.17;;;;;;;9.93;69.03;97345.28;5032711;28;20041;-77
2024/02/22 00:10:35;;;;;;;3.00;2.03;;;;;;;9.94;69.42;97362.25;5047189;28;20025;-76
2024/02/22 00:13:01;;;;;;;2.60;1.90;;;;;;;9.87;70.11;97337.47;5014510;28;20041;-76
2024/02/22 00:15:26;;;;;;;2.45;1.90;;;;;;;10.00;70.53;97371.97;5064291;28;20032;-76
2024/02/22 00:17:52;;;;;;;2.80;1.90;;;;;;;9.99;70.95;97351.53;5034017;28;20033;-76
2024/02/22 00:20:18;;;;;;;2.30;2.08;;;;;;;9.73;71.62;97324.47;5025841;28;20072;-76
2024/02/22 00:22:46;;;;;;;2.45;1.85;;;;;;;9.89;71.55;97329.94;5015683;28;20045;-76
2024/02/22 00:25:12;;;;;;;2.85;1.88;;;;;;;9.72;72.95;97325.56;5016549;28;20481;-76
2024/02/22 00:27:38;;;;;;;2.42;2.10;;;;;;;9.77;73.09;97346.28;5016380;28;20040;-76
2024/02/22 00:30:05;;;;;;;3.55;2.30;;;;;;;9.62;73.87;97303.16;5031750;28;20022;-76
2024/02/22 00:32:31;;;;;;;4.13;2.20;;;;;;;9.74;74.25;97331.47;5031676;28;20543;-76
2024/02/22 00:34:57;;;;;;;2.88;2.17;;;;;;;9.63;75.26;97323.63;5026432;28;20025;-75
2024/02/22 00:37:23;;;;;;;3.25;2.20;;;;;;;9.63;75.84;97310.16;5032464;28;20096;-75
2024/02/22 00:39:50;;;;;;;3.22;2.40;;;;;;;9.65;75.72;97302.66;5016082;28;20040;-75
2024/02/22 00:42:15;;;;;;;2.10;1.90;;;;;;;9.54;76.94;97315.25;5023714;28;20409;-75
2024/02/22 00:44:41;;;;;;;3.35;2.20;;;;;;;9.45;76.99;97279.13;5038932;28;20491;-75
2024/02/22 00:47:07;;;;;;;2.33;2.17;;;;;;;9.40;77.70;97263.00;5032165;28;20057;-75
2024/02/22 00:49:33;;;;;;;2.50;2.28;;;;;;;9.44;78.43;97280.22;5032450;28;20029;-76
2024/02/22 00:51:58;;;;;;;2.55;2.35;;;;;;;9.25;78.73;97241.41;5031667;28;20033;-76
2024/02/22 00:54:24;;;;;;;3.35;2.50;;;;;;;9.42;78.84;97252.81;5031447;28;20032;-77
2024/02/22 00:56:49;;;;;;;4.30;2.58;;;;;;;9.42;79.46;97252.81;5014795;28;20037;-75
2024/02/22 00:59:16;;;;;;;2.95;2.28;;;;;;;9.41;79.57;97255.72;5024301;28;20033;-75
2024/02/22 01:01:44;;;;;;;3.03;2.22;;;;;;;9.36;79.66;97232.34;5031252;28;20034;-75
2024/02/22 01:04:11;;;;;;;2.80;2.30;;;;;;;9.35;80.06;97219.97;5003095;28;20053;-75
2024/02/22 01:06:37;;;;;;;2.80;2.38;;;;;;;9.33;79.88;97214.06;5047588;28;20033;-75
2024/02/22 01:09:03;;;;;;;3.28;2.50;;;;;;;9.26;80.34;97205.44;5031052;28;20029;-76
2024/02/22 01:11:29;;;;;;;3.42;2.63;;;;;;;9.45;80.42;97214.63;5031051;28;20041;-75
2024/02/22 01:13:54;;;;;;;5.03;2.40;;;;;;;9.39;80.43;97213.00;5030753;28;20032;-76
2024/02/22 01:16:20;;;;;;;2.95;2.70;;;;;;;9.26;81.05;97181.25;5023004;28;20457;-77
2024/02/22 01:18:46;;;;;;;3.78;2.88;;;;;;;9.34;80.94;97190.66;5030827;28;20543;-78
2024/02/22 01:21:12;;;;;;;2.67;2.47;;;;;;;9.32;81.34;97198.19;5014823;28;20069;-76
2024/02/22 01:23:37;;;;;;;3.15;2.60;;;;;;;9.26;81.01;97169.69;5031268;28;20032;-78
2024/02/22 01:26:03;;;;;;;3.97;2.80;;;;;;;9.23;81.10;97157.59;5031779;28;20030;-76
2024/02/22 01:28:29;;;;;;;3.60;3.30;;;;;;;9.29;81.57;97178.03;5014284;28;20586;-76
2024/02/22 01:30:54;;;;;;;3.60;2.85;;;;;;;8.97;81.49;97119.03;5014832;28;20071;-78
2024/02/22 01:33:19;;;;;;;3.33;2.85;;;;;;;9.24;81.81;97164.56;5015100;28;20024;-76
2024/02/22 01:35:45;;;;;;;3.00;2.80;;;;;;;9.23;82.29;97146.84;5014975;28;20044;-77
2024/02/22 01:38:10;;;;;;;3.92;3.00;;;;;;;9.04;82.82;97126.84;4999391;28;20060;-77
2024/02/22 01:40:36;;;;;;;5.47;2.80;;;;;;;9.08;82.64;97130.63;5031256;28;20076;-77
2024/02/22 01:43:01;;;;;;;3.40;3.10;;;;;;;9.13;82.66;97136.03;5027024;28;20025;-78
2024/02/22 01:45:27;;;;;;;3.00;2.80;;;;;;;9.04;83.24;97110.75;5050722;28;20033;-76
2024/02/22 01:47:53;;;;;;;3.13;2.83;;;;;;;9.04;83.19;97116.94;5034496;28;20032;-76
2024/02/22 01:50:19;;;;;;;3.25;2.95;;;;;;;8.98;83.01;97101.06;5018766;28;20112;-76
2024/02/22 01:52:45;;;;;;;4.00;3.03;;;;;;;9.15;83.49;97128.53;5018644;28;20083;-77
2024/02/22 01:55:11;;;;;;;3.97;3.03;;;;;;;9.13;83.35;97122.59;5046640;28;20034;-76
2024/02/22 01:57:37;;;;;;;3.20;2.90;;;;;;;8.97;83.67;97099.44;5007906;28;20017;-77
2024/02/22 02:00:08;;;;;;;2.83;2.63;;;;;;;9.01;84.00;97095.16;5029073;28;20120;-76
2024/02/22 02:02:39;;;;;;;3.35;3.08;;;;;;;9.09;83.96;97112.66;5035544;28;20038;-76
2024/02/22 02:05:06;;;;;;;3.10;2.72;;;;;;;9.02;84.36;97112.88;5010766;28;20063;-75
2024/02/22 02:07:32;;;;;;;3.33;3.00;;;;;;;8.89;84.05;97092.66;5018701;28;20072;-76
2024/02/22 02:09:58;;;;;;;4.00;2.80;;;;;;;9.02;84.14;97091.41;5027738;28;20145;-75
2024/02/22 02:12:24;;;;;;;3.17;2.83;;;;;;;8.96;84.47;97069.06;5044112;28;20072;-76
2024/02/22 02:14:50;;;;;;;3.35;3.00;;;;;;;8.97;84.47;97072.56;5013042;28;20059;-76
2024/02/22 02:17:15;;;;;;;3.22;2.92;;;;;;;8.72;84.06;97026.81;5013383;28;20025;-78
2024/02/22 02:19:41;;;;;;;3.65;2.90;;;;;;;8.96;84.56;97063.72;5019577;28;20040;-75
2024/02/22 02:22:21;;;;;;;3.25;2.70;;;;;;;8.94;84.39;97062.34;5052543;28;20497;-75
2024/02/22 02:24:55;;;;;;;3.03;2.72;;;;;;;8.99;84.28;97055.13;5020077;28;20124;-76
2024/02/22 02:27:21;;;;;;;2.92;2.70;;;;;;;8.75;85.60;97029.78;5037419;28;20469;-76
2024/02/22 02:29:46;;;;;;;3.28;3.00;;;;;;;8.89;85.10;97032.81;5036253;28;20032;-75
2024/02/22 02:32:12;;;;;;;3.30;2.90;;;;;;;8.87;84.99;97029.56;5036880;28;20041;-76
2024/02/22 02:34:37;;;;;;;3.75;2.90;;;;;;;8.71;84.90;97001.03;5020147;28;20104;-76
2024/02/22 02:37:03;;;;;;;3.38;3.08;;;;;;;8.93;85.32;97028.53;5037102;28;20044;-77
2024/02/22 02:39:28;;;;;;;4.10;2.97;;;;;;;8.88;85.08;97010.53;5014463;28;20104;-77
2024/02/22 02:41:54;;;;;;;3.38;3.08;;;;;;;8.90;84.91;97007.56;5013829;28;20041;-77
2024/02/22 02:44:19;;;;;;;3.20;2.95;;;;;;;8.89;86.20;97019.41;5029738;28;20039;-77
2024/02/22 02:46:44;;;;;;;3.40;3.10;;;;;;;8.82;86.25;96998.13;5021010;28;20036;-76
2024/02/22 02:49:10;;;;;;;3.40;3.10;;;;;;;8.76;85.76;96979.59;5027438;28;20504;-77
2024/02/22 02:51:35;;;;;;;3.30;3.00;;;;;;;8.87;86.41;97002.72;5022842;28;20030;-78
2024/02/22 02:54:01;;;;;;;3.53;3.22;;;;;;;8.73;86.18;96964.00;5029889;28;20489;-78
2024/02/22 02:56:26;;;;;;;3.30;3.10;;;;;;;8.68;86.87;96972.06;5038349;28;20512;-77
2024/02/22 02:58:51;;;;;;;3.50;3.20;;;;;;;8.97;85.93;96995.53;5038922;28;20037;-78
2024/02/22 03:01:17;;;;;;;4.82;3.53;;;;;;;8.84;86.64;96982.59;5055256;28;20034;-77
2024/02/22 03:03:42;;;;;;;4.28;3.20;;;;;;;8.88;86.31;96985.56;5037813;28;20540;-76
2024/02/22 03:06:08;;;;;;;4.18;3.53;;;;;;;8.95;86.38;96978.06;5012257;28;20121;-77
2024/02/22 03:08:33;;;;;;;3.90;3.28;;;;;;;8.76;87.32;96953.56;5014902;28;20112;-76
2024/02/22 03:10:59;;;;;;;3.53;3.22;;;;;;;8.80;86.78;96954.66;5053074;28;20136;-75
2024/02/22 03:13:24;;;;;;;6.10;3.30;;;;;;;8.90;87.19;96969.97;5037356;28;20037;-76
2024/02/22 03:15:51;;;;;;;7.70;3.60;;;;;;;9.01;86.35;96963.56;5019560;28;20095;-75
2024/02/22 03:18:16;;;;;;;3.88;3.30;;;;;;;8.91;86.74;96964.34;5068752;28;20029;-76
2024/02/22 03:20:42;;;;;;;3.88;3.58;;;;;;;8.96;87.41;96968.94;5050871;28;20043;-76
2024/02/22 03:23:07;;;;;;;4.00;3.70;;;;;;;8.75;86.76;96935.06;5019096;28;20032;-76
2024/02/22 03:25:33;;;;;;;3.88;3.58;;;;;;;8.77;87.23;96938.28;5036593;28;20036;-76
2024/02/22 03:27:58;;;;;;;4.53;4.13;;;;;;;8.76;87.73;96931.28;5051501;28;20025;-75
2024/02/22 03:30:27;;;;;;;7.88;6.38;;;;;;;8.94;87.66;96942.34;5035447;28;20083;-75
2024/02/22 03:32:53;;;;;;;6.47;5.88;;;;;;;8.75;87.75;96929.69;5018342;28;20029;-76
2024/02/22 03:35:19;;;;;;;5.78;4.35;;;;;;;8.77;87.71;96911.44;5026414;28;20065;-75
2024/02/22 03:37:44;;;;;;;4.90;4.22;;;;;;;8.87;88.49;96939.09;5017029;28;20087;-76
2024/02/22 03:40:11;;;;;;;4.57;4.10;;;;;;;8.74;88.23;96901.22;5016936;28;20045;-76
2024/02/22 03:42:37;;;;;;;5.47;4.82;;;;;;;8.83;88.05;96911.19;5000963;28;20068;-76
2024/02/22 03:45:03;;;;;;;4.55;4.15;;;;;;;8.82;88.47;96916.81;5066372;28;20436;-74
2024/02/22 03:47:28;;;;;;;4.90;4.38;;;;;;;8.89;88.11;96909.31;5037503;28;20013;-75
2024/02/22 03:49:54;;;;;;;4.82;4.43;;;;;;;8.94;88.33;96915.50;5003060;28;20056;-74
2024/02/22 03:52:19;;;;;;;5.68;5.18;;;;;;;8.94;88.57;96918.19;5017828;28;20029;-74
2024/02/22 03:54:45;;;;;;;4.82;4.32;;;;;;;8.82;88.47;96908.78;5034758;28;20087;-74
2024/02/22 03:57:10;;;;;;;6.15;5.32;;;;;;;8.80;88.27;96905.53;5033881;28;20017;-73
2024/02/22 03:59:36;;;;;;;5.15;4.70;;;;;;;8.84;88.71;96902.06;5017361;28;20138;-76
2024/02/22 04:02:03;;;;;;;4.85;4.40;;;;;;;8.87;88.89;96917.63;5015824;28;20060;-75
2024/02/22 04:04:28;;;;;;;5.78;4.35;;;;;;;8.80;89.19;96881.34;5033608;28;20034;-75
2024/02/22 04:06:56;;;;;;;4.70;4.30;;;;;;;8.94;89.15;96906.63;5033782;28;20013;-75
2024/02/22 04:09:21;;;;;;;6.30;5.30;;;;;;;8.93;89.12;96899.66;5043502;28;20038;-75
2024/02/22 04:11:46;;;;;;;4.85;4.43;;;;;;;8.89;89.22;96883.25;5037293;28;20033;-75
2024/02/22 04:14:12;;;;;;;5.15;4.65;;;;;;;8.75;89.16;96865.28;5009936;28;20052;-76
2024/02/22 04:16:37;;;;;;;4.85;4.40;;;;;;;8.91;88.79;96874.97;5008789;28;20021;-76
2024/02/22 04:19:03;;;;;;;5.30;4.78;;;;;;;8.90;89.21;96867.97;5032890;28;20064;-76
2024/02/22 04:21:28;;;;;;;6.28;4.85;;;;;;;8.93;89.27;96864.75;5041448;28;20029;-76
2024/02/22 04:23:54;;;;;;;5.90;5.40;;;;;;;8.81;89.76;96848.91;4987503;28;20068;-76
2024/02/22 04:26:20;;;;;;;5.72;5.22;;;;;;;8.78;89.28;96838.69;5012500;28;20056;-76
2024/02/22 04:28:45;;;;;;;5.70;4.57;;;;;;;9.01;88.88;96861.53;5064071;28;20037;-76
2024/02/22 04:31:11;;;;;;;5.38;4.88;;;;;;;8.92;89.97;96861.25;5023964;28;20029;-76
2024/02/22 04:33:36;;;;;;;7.00;5.85;;;;;;;8.90;89.78;96849.19;5028619;28;20045;-75
2024/02/22 04:36:02;;;;;;;6.47;5.47;;;;;;;8.88;89.87;96838.72;5024337;28;20378;-74
2024/02/22 04:38:27;;;;;;;5.93;5.32;;;;;;;8.92;89.41;96829.03;5031259;28;20033;-75
2024/02/22 04:40:53;;;;;;;5.97;5.38;;;;;;;8.91;90.12;96838.16;5015158;28;20063;-75
2024/02/22 04:43:18;;;;;;;5.22;4.72;;;;;;;8.75;90.16;96817.75;5015045;28;20095;-75
2024/02/22 04:45:44;;;;;;;4.75;4.35;;;;;;;8.81;90.48;96822.06;5015261;28;20080;-77
2024/02/22 04:48:09;;;;;;;5.80;5.10;;;;;;;8.92;90.12;96825.53;5031932;28;20041;-77
2024/02/22 04:50:35;;;;;;;5.57;5.00;;;;;;;8.88;90.69;96827.16;5019636;28;20473;-76
2024/02/22 04:53:03;;;;;;;5.78;5.10;;;;;;;8.96;90.07;96834.69;5032638;28;20036;-76
2024/02/22 04:55:29;;;;;;;5.78;5.20;;;;;;;8.83;90.68;96811.84;5028518;28;20028;-76
2024/02/22 04:57:54;;;;;;;6.25;5.30;;;;;;;8.97;90.79;96836.28;5032023;28;20037;-76
2024/02/22 05:00:20;;;;;;;7.57;6.72;;;;;;;8.92;90.27;96809.44;5016790;28;20655;-77
2024/02/22 05:02:45;;;;;;;7.47;6.78;;;;;;;8.91;90.56;96818.59;5018489;28;20108;-78
2024/02/22 05:05:11;;;;;;;7.43;6.68;;;;;;;8.86;91.35;96821.25;5018905;28;20026;-77
2024/02/22 05:07:37;;;;;;;6.97;5.53;;;;;;;8.90;91.25;96825.00;5026887;28;20489;-77
2024/02/22 05:10:03;;;;;;;7.32;6.72;;;;;;;8.69;91.12;96796.53;5018653;28;20125;-78
2024/02/22 05:12:29;;;;;;;8.45;7.60;;;;;;;8.90;90.94;96816.97;5035195;28;20091;-78
2024/02/22 05:14:54;;;;;;;6.20;5.70;;;;;;;8.80;91.57;96803.53;5034401;28;20029;-76
2024/02/22 05:17:21;;;;;;;8.13;7.32;;;;;;;8.99;91.09;96821.53;5014448;28;20037;-76
2024/02/22 05:19:49;;;;;;;6.00;5.45;;;;;;;8.90;91.31;96792.78;5030497;28;20075;-76
2024/02/22 05:22:15;;;;;;;7.10;5.25;;;;;;;9.03;91.41;96819.91;5014678;28;20044;-75
2024/02/22 05:24:40;;;;;;;6.68;6.05;;;;;;;8.97;91.30;96804.06;5014286;28;20021;-75
2024/02/22 05:27:06;;;;;;;6.05;5.50;;;;;;;8.87;91.64;96785.28;5025406;28;20033;-75
2024/02/22 05:29:32;;;;;;;6.97;6.38;;;;;;;8.97;91.49;96793.34;5006886;28;20079;-75
2024/02/22 05:31:58;;;;;;;6.30;5.70;;;;;;;8.98;91.63;96789.59;5014806;28;20033;-76
2024/02/22 05:34:25;;;;;;;6.30;5.70;;;;;;;9.04;91.38;96788.50;5014746;28;20029;-75
2024/02/22 05:36:50;;;;;;;6.70;5.68;;;;;;;9.00;91.36;96782.06;5060149;28;20453;-75
2024/02/22 05:39:16;;;;;;;6.75;6.15;;;;;;;8.96;91.49;96754.16;5022521;28;20021;-75
2024/02/22 05:41:42;;;;;;;6.43;5.88;;;;;;;8.92;91.93;96763.81;5030663;28;20036;-75
2024/02/22 05:44:07;;;;;;;6.88;6.03;;;;;;;9.03;91.89;96771.59;5022702;28;20021;-75
2024/02/22 05:46:33;;;;;;;6.40;5.80;;;;;;;8.96;92.68;96757.63;5030907;28;20037;-75
2024/02/22 05:48:58;;;;;;;6.60;6.00;;;;;;;8.96;91.93;96749.56;5039618;28;20049;-75
2024/02/22 05:51:23;;;;;;;6.90;6.30;;;;;;;9.06;92.31;96754.13;5023525;28;20493;-75
2024/02/22 05:53:51;;;;;;;5.97;5.40;;;;;;;8.88;92.18;96722.47;5014616;28;20038;-75
2024/02/22 05:56:17;;;;;;;6.90;6.18;;;;;;;9.00;92.38;96744.47;5022807;28;20040;-75
2024/02/22 05:58:42;;;;;;;7.35;6.10;;;;;;;9.05;92.34;96731.06;5014066;28;20026;-75
2024/02/22 06:01:07;;;;;;;6.45;5.85;;;;;;;8.99;91.99;96726.75;5026346;28;20030;-75
2024/02/22 06:03:33;;;;;;;6.53;6.00;;;;;;;9.12;91.96;96736.97;5011203;28;20672;-75
2024/02/22 06:05:58;;;;;;;5.80;5.30;;;;;;;8.98;92.31;96709.03;5031278;28;20037;-74
2024/02/22 06:08:24;;;;;;;6.45;5.35;;;;;;;9.02;92.23;96736.97;5006348;28;20022;-76
2024/02/22 06:10:50;;;;;;;6.78;6.10;;;;;;;9.02;92.41;96726.22;5015009;28;20029;-75
2024/02/22 06:13:16;;;;;;;7.88;7.07;;;;;;;9.10;91.95;96732.94;5025449;28;20037;-76
2024/02/22 06:15:42;;;;;;;6.90;6.13;;;;;;;9.10;92.29;96736.44;5036830;28;20033;-76
2024/02/22 06:18:07;;;;;;;6.30;5.80;;;;;;;9.10;92.19;96733.75;5018727;28;20021;-76
2024/02/22 06:20:32;;;;;;;8.63;6.05;;;;;;;9.12;92.03;96725.41;5035161;28;20416;-75
2024/02/22 06:23:01;;;;;;;7.63;6.95;;;;;;;8.99;91.61;96694.53;5031366;28;20029;-76
2024/02/22 06:25:27;;;;;;;7.13;6.53;;;;;;;8.92;92.48;96685.94;5023849;28;20125;-74
2024/02/22 06:27:53;;;;;;;7.97;7.28;;;;;;;9.23;92.22;96729.69;5031480;28;20029;-76
2024/02/22 06:30:18;;;;;;;9.27;8.27;;;;;;;9.06;92.46;96703.09;5054621;28;20540;-76
2024/02/22 06:32:44;;;;;;;10.75;9.70;;;;;;;9.10;92.47;96706.06;5031632;28;20021;-76
2024/02/22 06:35:10;;;;;;;13.38;12.18;;;;;;;8.96;92.74;96685.13;5032241;28;20040;-75
2024/02/22 06:37:36;;;;;;;10.25;9.30;;;;;;;8.98;92.48;96682.19;5013923;28;20037;-76
2024/02/22 06:40:05;;;;;;;9.55;8.73;;;;;;;9.24;92.76;96717.88;5019294;28;20041;-76
2024/02/22 06:42:30;;;;;;;7.60;6.88;;;;;;;9.29;92.37;96725.91;5042153;28;20057;-76
2024/02/22 06:44:55;;;;;;;9.27;8.38;;;;;;;9.19;92.09;96705.25;5007091;28;20409;-76
2024/02/22 06:47:21;;;;;;;7.85;7.25;;;;;;;9.11;92.79;96699.59;5006087;28;20025;-75
2024/02/22 06:49:47;;;;;;;9.35;7.72;;;;;;;9.13;92.49;96700.94;5033302;28;20034;-76
2024/02/22 06:52:13;;;;;;;9.50;8.70;;;;;;;9.07;92.63;96675.19;5025794;28;20490;-75
2024/02/22 06:54:38;;;;;;;8.40;7.60;;;;;;;9.17;92.18;96691.25;5028807;28;20037;-75
2024/02/22 06:57:07;;;;;;;10.13;8.13;;;;;;;8.96;92.31;96668.25;5004925;28;20036;-76
2024/02/22 06:59:33;;;;;;;7.80;7.03;;;;;;;8.97;92.32;96654.53;5064433;28;20044;-75
2024/02/22 07:01:58;;;;;;;8.57;7.88;;;;;;;9.18;92.78;96686.69;5010257;28;20033;-76
2024/02/22 07:04:24;;;;;;;8.27;7.57;;;;;;;9.28;92.44;96687.50;5034800;28;20045;-77
2024/02/22 07:06:49;;;;;;;9.13;7.65;;;;;;;9.16;93.19;96684.31;5051005;28;20116;-76
2024/02/22 07:09:14;;;;;;;7.65;7.05;;;;;;;9.15;92.72;96681.91;5034273;28;20037;-75
2024/02/22 07:11:40;;;;;;;6.75;6.25;;;;;;;9.23;92.95;96690.19;5024259;28;20029;-75
2024/02/22 07:14:05;;;;;;;7.43;6.82;;;;;;;9.27;92.76;96680.50;5023787;28;20041;-75
2024/02/22 07:16:31;;;;;;;7.57;6.88;;;;;;;9.15;92.83;96652.34;5025499;28;20034;-75
2024/02/22 07:18:57;;;;;;;7.18;6.60;;;;;;;9.10;92.94;96650.50;5021829;28;20044;-75
2024/02/22 07:21:23;;;;;;;7.53;6.88;;;;;;;9.28;93.00;96667.88;5012752;28;20030;-75
2024/02/22 07:23:48;;;;;;;8.27;7.60;;;;;;;9.12;92.99;96651.03;5062361;28;20041;-75
2024/02/22 07:26:13;;;;;;;8.40;7.50;;;;;;;9.01;93.25;96636.00;5021081;28;20024;-76
2024/02/22 07:28:39;;;;;;;7.80;7.20;;;;;;;9.23;93.53;96657.97;5044479;28;20486;-74
2024/02/22 07:31:05;;;;;;;9.05;7.35;;;;;;;9.12;93.43;96623.34;5061471;28;20440;-75
2024/02/22 07:33:31;;;;;;;8.00;7.25;;;;;;;9.11;93.43;96638.66;5033910;28;20042;-75
2024/02/22 07:35:57;;;;;;;8.00;7.20;;;;;;;9.22;92.91;96650.97;5045288;28;20026;-75
2024/02/22 07:38:23;;;;;;;9.57;8.77;;;;;;;9.36;92.82;96665.44;5021584;28;20120;-75
2024/02/22 07:40:54;;;;;;;11.60;9.93;;;;;;;9.30;93.16;96658.47;5000502;28;20029;-75
2024/02/22 07:43:19;;;;;;;9.43;8.73;;;;;;;9.25;93.18;96668.41;5060628;28;20040;-75
2024/02/22 07:45:45;;;;;;;7.93;7.20;;;;;;;9.24;93.09;96643.44;5001519;28;20026;-75
2024/02/22 07:48:10;;;;;;;9.02;8.18;;;;;;;9.04;93.89;96646.19;5048221;28;20033;-75
2024/02/22 07:50:36;;;;;;;8.07;7.28;;;;;;;9.36;92.92;96662.75;5032140;28;20025;-75
2024/02/22 07:53:01;;;;;;;9.45;8.52;;;;;;;9.16;93.52;96645.88;5023114;28;20045;-75
2024/02/22 07:55:27;;;;;;;9.10;8.18;;;;;;;9.20;93.31;96642.38;5023630;28;20033;-75
2024/02/22 07:57:53;;;;;;;9.93;9.02;;;;;;;9.33;93.22;96643.69;5031592;28;20034;-76
2024/02/22 08:00:19;;;;;;;14.07;12.15;;;;;;;9.25;93.68;96634.31;5023765;28;20021;-75
2024/02/22 08:02:45;;;;;;;9.35;7.88;;;;;;;9.35;93.18;96644.22;5015659;28;20036;-75
2024/02/22 08:05:11;;;;;;;8.10;7.40;;;;;;;9.33;93.27;96635.63;5032140;28;20025;-75
2024/02/22 08:07:37;;;;;;;9.05;8.25;;;;;;;9.31;93.63;96627.84;5011076;28;20033;-76
2024/02/22 08:10:03;;;;;;;10.10;9.10;;;;;;;9.30;93.70;96625.44;5015986;28;20022;-76
2024/02/22 08:12:29;;;;;;;9.60;8.70;;;;;;;9.28;93.94;96620.34;5015305;28;20041;-76
2024/02/22 08:14:55;;;;;;;10.70;9.35;;;;;;;9.25;94.11;96618.19;5015445;28;20033;-77
2024/02/22 08:17:20;;;;;;;9.48;8.52;;;;;;;9.20;93.65;96598.59;5015419;28;20041;-76
2024/02/22 08:19:47;;;;;;;9.05;8.20;;;;;;;9.31;93.54;96606.34;5014536;28;20063;-77
2024/02/22 08:22:13;;;;;;;10.18;9.10;;;;;;;9.41;94.01;96606.31;5024665;28;20052;-75
2024/02/22 08:24:38;;;;;;;9.43;8.63;;;;;;;9.39;93.94;96605.78;5014690;28;20033;-76
2024/02/22 08:27:03;;;;;;;8.70;7.90;;;;;;;9.46;94.06;96618.91;5053123;28;20068;-76
2024/02/22 08:29:29;;;;;;;9.10;8.30;;;;;;;9.42;94.27;96613.31;5010381;28;20171;-76
2024/02/22 08:31:54;;;;;;;9.20;8.40;;;;;;;9.26;94.81;96587.59;5018214;28;20049;-76
2024/02/22 08:34:20;;;;;;;9.27;8.35;;;;;;;9.52;93.67;96601.72;5020356;28;20025;-77
2024/02/22 08:36:46;;;;;;;9.43;8.40;;;;;;;9.50;94.18;96601.97;5021230;28;20625;-75
2024/02/22 08:39:12;;;;;;;9.30;8.50;;;;;;;9.42;94.02;96597.19;5014093;28;20022;-75
2024/02/22 08:41:38;;;;;;;9.75;8.85;;;;;;;9.40;93.85;96583.22;5030886;28;20033;-76
2024/02/22 08:44:05;;;;;;;9.95;9.15;;;;;;;9.48;93.85;96598.75;5006376;28;20381;-76
2024/02/22 08:46:31;;;;;;;10.13;9.23;;;;;;;9.53;93.42;96587.97;5030920;28;20033;-78
2024/02/22 08:48:56;;;;;;;10.75;9.73;;;;;;;9.40;93.66;96580.53;5014465;28;20469;-75
2024/02/22 08:51:21;;;;;;;9.68;8.88;;;;;;;9.43;93.85;96582.66;5068704;28;20041;-76
2024/02/22 08:53:47;;;;;;;10.95;9.95;;;;;;;9.45;94.19;96591.22;5015293;28;20022;-76
2024/02/22 08:56:12;;;;;;;10.35;9.50;;;;;;;9.41;94.01;96589.38;5030928;28;20064;-76
2024/02/22 08:58:38;;;;;;;11.77;10.57;;;;;;;9.43;93.75;96581.84;5030585;28;20025;-76
2024/02/22 09:01:07;;;;;;;11.15;10.15;;;;;;;9.39;94.29;96570.84;5025018;28;20108;-75
2024/02/22 09:03:32;;;;;;;11.70;10.70;;;;;;;9.54;93.81;96594.97;5022102;28;20104;-75
2024/02/22 09:05:58;;;;;;;12.80;11.55;;;;;;;9.56;93.75;96584.75;5040736;28;20543;-75
2024/02/22 09:08:25;;;;;;;14.05;12.70;;;;;;;9.48;93.76;96557.63;5013157;28;20136;-76
2024/02/22 09:10:51;;;;;;;13.30;11.88;;;;;;;9.50;93.75;96576.97;5039815;28;20030;-76
2024/02/22 09:13:17;;;;;;;14.15;12.68;;;;;;;9.45;93.70;96559.00;5034733;28;20439;-76
2024/02/22 09:15:49;;;;;;;13.30;12.00;;;;;;;9.55;94.17;96564.31;5029113;28;20040;-76
2024/02/22 09:18:14;;;;;;;11.65;10.48;;;;;;;9.52;93.81;96569.47;5019613;28;20041;-76
2024/02/22 09:20:40;;;;;;;12.75;11.23;;;;;;;9.46;94.31;96555.25;5005275;28;20029;-76
2024/02/22 09:23:05;;;;;;;12.80;11.57;;;;;;;9.58;94.07;96558.41;5045402;28;20037;-77
2024/02/22 09:25:30;;;;;;;11.80;10.60;;;;;;;9.47;93.86;96546.13;5030518;28;20033;-77
2024/02/22 09:27:56;;;;;;;12.43;11.15;;;;;;;9.55;94.25;96553.56;5030902;28;20448;-81
2024/02/22 09:30:22;;;;;;;11.77;10.70;;;;;;;9.60;93.98;96548.16;5014542;28;20068;-76
2024/02/22 09:32:47;;;;;;;11.82;10.82;;;;;;;9.42;93.82;96513.91;5014114;28;20128;-77
2024/02/22 09:35:13;;;;;;;15.25;13.75;;;;;;;9.42;93.55;96519.25;5014447;28;20021;-77
2024/02/22 09:37:38;;;;;;;13.10;11.90;;;;;;;9.22;93.48;96476.38;5029852;28;20065;-76
2024/02/22 09:40:04;;;;;;;12.85;11.63;;;;;;;9.46;93.64;96511.44;5010840;28;20033;-77
2024/02/22 09:42:30;;;;;;;11.77;10.73;;;;;;;9.56;94.19;96536.38;5014336;28;20029;-77
2024/02/22 09:44:55;;;;;;;12.30;10.50;;;;;;;9.60;93.83;96518.59;5031035;28;20025;-77
2024/02/22 09:47:21;;;;;;;11.38;10.43;;;;;;;9.67;94.51;96534.41;5022616;28;20065;-77
2024/02/22 09:49:46;;;;;;;10.50;9.60;;;;;;;9.69;93.98;96525.00;5014339;28;20025;-75
2024/02/22 09:52:15;;;;;;;10.57;9.68;;;;;;;9.66;94.21;96514.78;5030970;28;20056;-77
2024/02/22 09:54:43;;;;;;;10.90;9.82;;;;;;;9.69;94.45;96516.94;5016192;28;20021;-75
2024/02/22 09:57:09;;;;;;;12.50;11.20;;;;;;;9.68;94.39;96509.94;5030893;28;20116;-77
2024/02/22 09:59:35;;;;;;;11.57;10.60;;;;;;;9.44;94.42;96465.25;5013934;28;20049;-76
2024/02/22 10:02:05;;;;;;;11.07;10.15;;;;;;;9.81;94.01;96521.94;5014272;28;20489;-77
2024/02/22 10:04:31;;;;;;;13.45;12.25;;;;;;;9.90;93.84;96516.75;5010309;28;20497;-76
2024/02/22 10:07:01;;;;;;;10.40;9.60;;;;;;;9.83;94.03;96505.53;5000870;28;20024;-76
2024/02/22 10:09:27;;;;;;;10.50;9.57;;;;;;;9.85;94.67;96489.94;5033590;28;20504;-75
2024/02/22 10:11:53;;;;;;;10.10;9.20;;;;;;;9.79;94.73;96474.91;5020130;28;20052;-76
2024/02/22 10:14:18;;;;;;;9.40;8.60;;;;;;;9.78;94.40;96467.97;5033553;28;20029;-76
2024/02/22 10:16:45;;;;;;;11.32;10.20;;;;;;;9.87;94.89;96485.09;5025220;28;20444;-76
2024/02/22 10:19:12;;;;;;;11.73;10.65;;;;;;;9.94;94.16;96477.50;5033696;28;20094;-75
2024/02/22 10:21:38;;;;;;;10.30;9.40;;;;;;;10.01;94.31;96491.41;5033599;28;20022;-74
2024/02/22 10:24:04;;;;;;;11.15;10.15;;;;;;;9.98;93.97;96467.78;5016928;28;20045;-76
2024/02/22 10:26:29;;;;;;;9.70;8.80;;;;;;;10.04;94.23;96486.25;5014914;28;20017;-77
2024/02/22 10:29:06;;;;;;;9.75;8.82;;;;;;;10.13;93.22;96481.09;5033194;28;20071;-77
2024/02/22 10:31:47;;;;;;;9.38;8.65;;;;;;;9.97;93.67;96463.47;5038168;28;20075;-76
2024/02/22 10:34:14;;;;;;;9.90;9.10;;;;;;;10.05;94.22;96476.31;5007501;28;20096;-75
2024/02/22 10:36:40;;;;;;;10.20;9.40;;;;;;;10.17;93.86;96468.72;5033161;28;20022;-75
2024/02/22 10:39:10;;;;;;;9.00;8.20;;;;;;;10.14;93.87;96474.66;5042093;28;20033;-75
2024/02/22 10:41:35;;;;;;;8.00;7.40;;;;;;;10.10;94.00;96458.25;5016743;28;20025;-76
2024/02/22 10:44:04;;;;;;;9.30;8.60;;;;;;;10.17;93.44;96457.94;5032385;28;20033;-76
2024/02/22 10:46:35;;;;;;;10.18;9.27;;;;;;;10.16;93.98;96456.34;5051366;28;20025;-77
2024/02/22 10:49:00;;;;;;;11.25;10.27;;;;;;;10.05;94.49;96441.34;5025095;28;20037;-77
2024/02/22 10:51:28;;;;;;;9.73;8.77;;;;;;;10.12;94.02;96423.03;5033149;28;20040;-77
2024/02/22 10:53:55;;;;;;;10.32;9.43;;;;;;;10.28;93.66;96437.91;5032640;28;20125;-77
2024/02/22 10:56:25;;;;;;;10.65;9.60;;;;;;;10.23;94.57;96446.84;5025167;28;20490;-77
2024/02/22 10:58:52;;;;;;;10.30;9.30;;;;;;;10.26;94.21;96429.34;5049008;28;20045;-77
2024/02/22 11:01:19;;;;;;;9.57;8.77;;;;;;;10.33;94.39;96432.50;5013284;28;20121;-75
2024/02/22 11:03:45;;;;;;;8.80;8.10;;;;;;;10.26;94.19;96415.88;5033180;28;20443;-76
2024/02/22 11:06:13;;;;;;;9.50;8.55;;;;;;;10.30;94.20;96414.22;5032924;28;20032;-76
2024/02/22 11:08:50;;;;;;;8.70;7.85;;;;;;;10.25;94.04;96373.91;5002308;28;20034;-76
2024/02/22 11:11:30;;;;;;;8.55;7.75;;;;;;;10.34;94.25;96404.47;5040996;28;20080;-74
2024/02/22 11:14:00;;;;;;;8.93;7.95;;;;;;;10.29;94.25;96364.22;5038881;28;20037;-75
2024/02/22 11:16:34;;;;;;;7.97;7.38;;;;;;;10.35;94.66;96381.88;5028858;28;20026;-75
2024/02/22 11:19:09;;;;;;;7.90;7.30;;;;;;;10.38;94.64;96378.63;5031711;28;20048;-75
2024/02/22 11:21:44;;;;;;;7.80;7.10;;;;;;;10.33;94.76;96376.00;5024130;28;20041;-76
2024/02/22 11:24:11;;;;;;;8.10;7.40;;;;;;;10.40;94.56;96363.00;5024138;28;20037;-75
2024/02/22 11:26:37;;;;;;;8.95;8.13;;;;;;;10.36;94.75;96357.38;5024091;28;20025;-75
2024/02/22 11:29:03;;;;;;;8.45;7.65;;;;;;;10.55;94.48;96368.16;5023707;28;20083;-76
2024/02/22 11:31:29;;;;;;;9.45;8.55;;;;;;;10.52;94.96;96358.00;5024654;28;20449;-75
2024/02/22 11:33:59;;;;;;;8.80;8.02;;;;;;;10.59;94.38;96353.06;5035221;28;20081;-74